createdAt,value
2018-08-27T00:00:55.588Z,97.33
2018-08-27T00:01:56.150Z,98.38
2018-08-27T00:02:56.714Z,97.71
2018-08-27T00:03:57.259Z,97.90
2018-08-27T00:04:57.811Z,97.90
2018-08-27T00:05:58.364Z,98.09
2018-08-27T00:06:58.917Z,98.09
2018-08-27T00:07:59.472Z,98.66
2018-08-27T00:09:00.028Z,99.19
2018-08-27T00:10:00.582Z,99.99
2018-08-27T00:11:01.138Z,99.71
2018-08-27T00:12:01.686Z,99.24
2018-08-27T00:13:02.237Z,99.24
2018-08-27T00:14:02.784Z,99.99
2018-08-27T00:15:03.335Z,99.99
2018-08-27T00:16:03.889Z,99.99
2018-08-27T00:17:04.440Z,99.99
2018-08-27T00:18:04.982Z,99.76
2018-08-27T00:19:05.534Z,99.95
2018-08-27T00:20:06.084Z,98.99
2018-08-27T00:21:06.631Z,98.38
2018-08-27T00:22:07.181Z,98.75
2018-08-27T00:23:07.737Z,99.81
2018-08-27T00:24:08.287Z,99.43
2018-08-27T00:25:08.839Z,99.43
2018-08-27T00:26:09.392Z,99.71
2018-08-27T00:27:09.943Z,99.99
2018-08-27T00:28:10.497Z,99.99
2018-08-27T00:29:11.051Z,99.99
2018-08-27T00:30:11.601Z,99.24
2018-08-27T00:31:12.154Z,99.81
2018-08-27T00:32:12.701Z,99.99
2018-08-27T00:33:13.255Z,99.90
2018-08-27T00:34:13.804Z,98.85
2018-08-27T00:35:14.351Z,98.95
2018-08-27T00:36:14.908Z,99.62
2018-08-27T00:37:15.458Z,99.04
2018-08-27T00:38:16.011Z,98.85
2018-08-27T00:39:16.605Z,99.52
2018-08-27T00:40:17.109Z,99.43
2018-08-27T00:41:17.661Z,99.24
2018-08-27T00:42:18.214Z,98.47
2018-08-27T00:43:18.767Z,98.66
2018-08-27T00:44:19.322Z,99.33
2018-08-27T00:45:19.873Z,99.52
2018-08-27T00:46:20.422Z,99.99
2018-08-27T00:47:20.981Z,99.99
2018-08-27T00:48:21.532Z,99.24
2018-08-27T00:49:22.078Z,99.24
2018-08-27T00:50:22.624Z,97.90
2018-08-27T00:51:23.167Z,98.66
2018-08-27T00:52:23.709Z,98.09
2018-08-27T00:53:24.262Z,98.57
2018-08-27T00:54:24.807Z,98.85
2018-08-27T00:55:25.363Z,99.33
2018-08-27T00:56:25.914Z,98.95
2018-08-27T00:57:26.466Z,99.14
2018-08-27T00:58:27.015Z,99.43
2018-08-27T00:59:27.569Z,98.95
2018-08-27T01:00:28.127Z,98.28
2018-08-27T01:01:28.678Z,97.13
2018-08-27T01:02:29.229Z,97.33
2018-08-27T01:03:29.782Z,98.57
2018-08-27T01:04:30.325Z,97.23
2018-08-27T01:05:30.873Z,97.04
2018-08-27T01:06:31.426Z,97.52
2018-08-27T01:07:31.979Z,97.61
2018-08-27T01:08:32.536Z,98.09
2018-08-27T01:09:33.084Z,99.43
2018-08-27T01:10:33.639Z,99.62
2018-08-27T01:11:34.184Z,99.81
2018-08-27T01:12:34.739Z,99.99
2018-08-27T01:13:35.297Z,99.99
2018-08-27T01:14:35.843Z,99.99
2018-08-27T01:15:36.395Z,99.99
2018-08-27T01:16:36.952Z,99.99
2018-08-27T01:17:37.501Z,99.99
2018-08-27T01:18:38.050Z,99.99
2018-08-27T01:19:38.602Z,99.99
2018-08-27T01:20:39.155Z,99.99
2018-08-27T01:21:39.698Z,99.99
2018-08-27T01:22:40.293Z,99.99
2018-08-27T01:23:40.797Z,99.99
2018-08-27T01:24:41.348Z,99.99
2018-08-27T01:25:41.892Z,99.99
2018-08-27T01:26:42.439Z,99.99
2018-08-27T01:27:42.994Z,99.99
2018-08-27T01:28:43.535Z,99.99
2018-08-27T01:29:44.088Z,99.99
2018-08-27T01:30:44.646Z,99.99
2018-08-27T01:31:45.192Z,99.99
2018-08-27T01:32:45.744Z,99.99
2018-08-27T01:33:46.301Z,99.99
2018-08-27T01:34:46.855Z,99.99
2018-08-27T01:35:47.404Z,99.99
2018-08-27T01:36:47.948Z,99.99
2018-08-27T01:37:48.503Z,99.99
2018-08-27T01:38:49.064Z,99.99
2018-08-27T01:39:49.608Z,99.99
2018-08-27T01:40:50.158Z,99.99
2018-08-27T01:41:50.703Z,99.99
2018-08-27T01:42:51.257Z,99.99
2018-08-27T01:43:51.814Z,99.99
2018-08-27T01:44:52.408Z,99.99
2018-08-27T01:45:52.906Z,99.99
2018-08-27T01:46:53.450Z,99.99
2018-08-27T01:47:53.994Z,99.99
2018-08-27T01:48:54.549Z,99.99
2018-08-27T01:49:55.101Z,99.99
2018-08-27T01:50:55.655Z,99.99
2018-08-27T01:51:56.208Z,99.99
2018-08-27T01:52:56.759Z,99.99
2018-08-27T01:53:57.312Z,99.99
2018-08-27T01:54:57.861Z,99.99
2018-08-27T01:55:58.414Z,99.99
2018-08-27T01:56:58.966Z,99.99
2018-08-27T01:57:59.518Z,99.99
2018-08-27T01:59:00.067Z,99.99
2018-08-27T02:00:00.621Z,99.99
2018-08-27T02:01:01.169Z,99.99
2018-08-27T02:02:01.724Z,99.99
2018-08-27T02:03:02.273Z,99.99
2018-08-27T02:04:02.824Z,99.99
2018-08-27T02:05:03.376Z,99.99
2018-08-27T02:06:03.930Z,99.99
2018-08-27T02:07:04.486Z,99.99
2018-08-27T02:08:05.035Z,99.99
2018-08-27T02:09:05.594Z,99.99
2018-08-27T02:10:06.141Z,99.99
2018-08-27T02:11:06.695Z,99.99
2018-08-27T02:12:07.244Z,99.99
2018-08-27T02:13:07.787Z,99.99
2018-08-27T02:14:08.338Z,99.99
2018-08-27T02:15:08.891Z,99.99
2018-08-27T02:16:09.445Z,99.99
2018-08-27T02:17:09.996Z,99.99
2018-08-27T02:18:10.540Z,99.99
2018-08-27T02:19:11.095Z,99.99
2018-08-27T02:20:11.646Z,99.99
2018-08-27T02:21:12.200Z,99.99
2018-08-27T02:22:12.746Z,99.99
2018-08-27T02:23:13.296Z,99.99
2018-08-27T02:24:13.851Z,99.99
2018-08-27T02:25:14.405Z,99.99
2018-08-27T02:26:14.956Z,99.99
2018-08-27T02:27:15.510Z,99.99
2018-08-27T02:28:16.062Z,99.99
2018-08-27T02:29:16.612Z,99.99
2018-08-27T02:30:17.168Z,99.99
2018-08-27T02:31:17.709Z,99.99
2018-08-27T02:32:18.314Z,99.99
2018-08-27T02:33:18.813Z,99.99
2018-08-27T02:34:19.356Z,99.99
2018-08-27T02:35:19.906Z,99.99
2018-08-27T02:36:20.460Z,99.99
2018-08-27T02:37:21.009Z,99.99
2018-08-27T02:38:21.559Z,99.99
2018-08-27T02:39:22.104Z,99.99
2018-08-27T02:40:22.660Z,99.99
2018-08-27T02:41:23.214Z,99.99
2018-08-27T02:42:23.761Z,99.99
2018-08-27T02:43:24.314Z,99.99
2018-08-27T02:44:24.878Z,99.99
2018-08-27T02:45:25.411Z,99.99
2018-08-27T02:46:25.965Z,99.99
2018-08-27T02:47:26.518Z,99.99
2018-08-27T02:48:27.070Z,99.99
2018-08-27T02:49:27.624Z,99.99
2018-08-27T02:50:28.176Z,99.99
2018-08-27T02:51:28.732Z,99.99
2018-08-27T02:52:29.287Z,99.99
2018-08-27T02:53:29.841Z,99.99
2018-08-27T02:54:30.393Z,99.99
2018-08-27T02:55:30.943Z,99.99
2018-08-27T02:56:31.487Z,99.99
2018-08-27T02:57:32.038Z,99.99
2018-08-27T02:58:32.590Z,99.99
2018-08-27T02:59:33.142Z,99.99
2018-08-27T03:00:33.696Z,99.99
2018-08-27T03:01:34.250Z,99.99
2018-08-27T03:02:34.803Z,99.99
2018-08-27T03:03:35.352Z,99.99
2018-08-27T03:04:35.908Z,99.99
2018-08-27T03:05:36.458Z,99.99
2018-08-27T03:06:37.011Z,99.99
2018-08-27T03:07:37.562Z,99.99
2018-08-27T03:09:03.790Z,99.99
2018-08-27T03:10:04.344Z,99.99
2018-08-27T03:11:04.890Z,99.99
2018-08-27T03:12:05.443Z,99.99
2018-08-27T03:13:05.999Z,99.99
2018-08-27T03:14:06.534Z,99.99
2018-08-27T03:15:07.085Z,99.99
2018-08-27T03:16:07.631Z,99.99
2018-08-27T03:17:08.210Z,99.99
2018-08-27T03:18:08.732Z,99.99
2018-08-27T03:19:09.278Z,99.99
2018-08-27T03:20:09.821Z,99.99
2018-08-27T03:21:10.369Z,99.99
2018-08-27T03:22:10.923Z,99.99
2018-08-27T03:23:11.480Z,99.99
2018-08-27T03:24:12.020Z,99.99
2018-08-27T03:25:12.576Z,99.99
2018-08-27T03:26:13.127Z,99.99
2018-08-27T03:27:13.680Z,99.99
2018-08-27T03:28:14.229Z,99.99
2018-08-27T03:29:14.781Z,99.99
2018-08-27T03:30:15.334Z,99.99
2018-08-27T03:31:15.884Z,99.99
2018-08-27T03:32:16.446Z,99.99
2018-08-27T03:33:16.988Z,99.99
2018-08-27T03:34:17.544Z,99.99
2018-08-27T03:35:18.099Z,99.99
2018-08-27T03:36:18.640Z,99.99
2018-08-27T03:37:19.187Z,99.99
2018-08-27T03:38:19.739Z,99.99
2018-08-27T03:39:20.288Z,99.99
2018-08-27T03:40:20.839Z,99.99
2018-08-27T03:41:21.388Z,99.99
2018-08-27T03:42:21.939Z,99.99
2018-08-27T03:43:22.482Z,99.99
2018-08-27T03:44:23.032Z,99.99
2018-08-27T03:45:23.586Z,99.99
2018-08-27T03:46:24.139Z,99.99
2018-08-27T03:47:24.682Z,99.99
2018-08-27T03:48:25.241Z,99.99
2018-08-27T03:49:25.791Z,99.99
2018-08-27T03:50:26.343Z,99.99
2018-08-27T03:51:26.889Z,99.99
2018-08-27T03:52:27.449Z,99.99
2018-08-27T03:53:27.996Z,99.99
2018-08-27T03:54:28.551Z,99.99
2018-08-27T03:55:29.113Z,99.99
2018-08-27T03:56:29.654Z,99.99
2018-08-27T03:57:30.208Z,99.99
2018-08-27T03:58:30.763Z,99.99
2018-08-27T03:59:31.316Z,99.99
2018-08-27T04:00:31.874Z,99.99
2018-08-27T04:01:32.422Z,99.99
2018-08-27T04:02:32.973Z,99.99
2018-08-27T04:03:33.527Z,99.99
2018-08-27T04:04:34.078Z,99.99
2018-08-27T04:05:34.639Z,99.99
2018-08-27T04:06:35.182Z,99.99
2018-08-27T04:07:35.731Z,99.99
2018-08-27T04:08:36.277Z,99.99
2018-08-27T04:09:36.832Z,99.99
2018-08-27T04:10:37.385Z,99.99
2018-08-27T04:11:37.935Z,99.99
2018-08-27T04:12:38.483Z,99.99
2018-08-27T04:13:39.063Z,99.99
2018-08-27T04:14:39.632Z,99.99
2018-08-27T04:15:40.188Z,99.99
2018-08-27T04:16:40.895Z,99.99
2018-08-27T04:17:41.444Z,99.99
2018-08-27T04:18:41.999Z,99.99
2018-08-27T04:19:42.552Z,99.99
2018-08-27T04:20:43.104Z,99.99
2018-08-27T04:21:43.662Z,99.99
2018-08-27T04:22:44.211Z,99.99
2018-08-27T04:23:44.760Z,99.99
2018-08-27T04:24:45.312Z,99.99
2018-08-27T04:25:45.867Z,99.99
2018-08-27T04:26:46.419Z,99.99
2018-08-27T04:27:46.972Z,99.99
2018-08-27T04:28:47.644Z,99.99
2018-08-27T04:29:48.080Z,99.99
2018-08-27T04:30:48.634Z,99.99
2018-08-27T04:31:49.187Z,99.99
2018-08-27T04:32:49.742Z,99.99
2018-08-27T04:33:50.289Z,99.99
2018-08-27T04:34:50.913Z,99.99
2018-08-27T04:35:51.383Z,99.99
2018-08-27T04:36:51.939Z,99.99
2018-08-27T04:37:52.497Z,99.99
2018-08-27T04:38:53.079Z,99.99
2018-08-27T04:39:53.604Z,99.99
2018-08-27T04:40:54.163Z,99.99
2018-08-27T04:41:54.718Z,99.99
2018-08-27T04:42:55.271Z,99.99
2018-08-27T04:43:55.825Z,99.99
2018-08-27T04:44:56.388Z,99.99
2018-08-27T04:45:56.939Z,99.99
2018-08-27T04:46:57.538Z,99.99
2018-08-27T04:47:58.055Z,99.99
2018-08-27T04:48:58.608Z,99.99
2018-08-27T04:49:59.165Z,99.99
2018-08-27T04:50:59.725Z,99.99
2018-08-27T04:52:00.278Z,99.99
2018-08-27T04:53:00.828Z,99.99
2018-08-27T04:54:01.384Z,99.99
2018-08-27T04:55:01.944Z,99.99
2018-08-27T04:56:02.498Z,99.99
2018-08-27T04:57:03.055Z,99.99
2018-08-27T04:58:03.618Z,99.99
2018-08-27T04:59:04.170Z,99.99
2018-08-27T05:00:04.719Z,99.99
2018-08-27T05:01:05.281Z,99.99
2018-08-27T05:02:05.834Z,99.99
2018-08-27T05:03:06.394Z,99.99
2018-08-27T05:04:06.954Z,99.99
2018-08-27T05:05:07.509Z,99.99
2018-08-27T05:06:08.065Z,99.99
2018-08-27T05:07:08.625Z,99.99
2018-08-27T05:08:09.181Z,99.99
2018-08-27T05:09:09.739Z,99.99
2018-08-27T05:10:10.300Z,99.99
2018-08-27T05:11:10.847Z,99.99
2018-08-27T05:12:11.406Z,99.99
2018-08-27T05:13:11.999Z,99.99
2018-08-27T05:14:12.510Z,99.99
2018-08-27T05:15:13.069Z,99.99
2018-08-27T05:16:13.628Z,99.99
2018-08-27T05:17:14.175Z,99.99
2018-08-27T05:18:14.732Z,99.99
2018-08-27T05:19:15.356Z,99.99
2018-08-27T05:20:15.837Z,99.99
2018-08-27T05:21:16.393Z,99.99
2018-08-27T05:22:16.951Z,99.99
2018-08-27T05:23:17.508Z,99.99
2018-08-27T05:24:18.074Z,99.99
2018-08-27T05:25:18.619Z,99.99
2018-08-27T05:26:19.177Z,99.99
2018-08-27T05:27:19.737Z,99.99
2018-08-27T05:28:20.293Z,99.99
2018-08-27T05:29:20.903Z,99.99
2018-08-27T05:30:21.465Z,99.99
2018-08-27T05:31:22.035Z,99.99
2018-08-27T05:32:22.572Z,99.99
2018-08-27T05:33:23.131Z,99.99
2018-08-27T05:34:23.692Z,99.99
2018-08-27T05:35:24.248Z,99.99
2018-08-27T05:36:24.807Z,99.99
2018-08-27T05:37:25.363Z,99.99
2018-08-27T05:38:25.956Z,99.99
2018-08-27T05:39:26.471Z,99.99
2018-08-27T05:40:27.030Z,99.99
2018-08-27T05:41:27.589Z,99.99
2018-08-27T05:42:28.145Z,99.99
2018-08-27T05:43:28.705Z,99.99
2018-08-27T05:44:29.339Z,99.99
2018-08-27T05:45:29.814Z,99.99
2018-08-27T05:46:30.372Z,99.99
2018-08-27T05:47:30.930Z,99.99
2018-08-27T05:48:31.480Z,99.99
2018-08-27T05:49:32.042Z,99.99
2018-08-27T05:50:32.596Z,99.99
2018-08-27T05:51:33.150Z,99.99
2018-08-27T05:52:33.701Z,99.99
2018-08-27T05:53:34.253Z,99.99
2018-08-27T05:54:34.813Z,99.99
2018-08-27T05:55:35.374Z,99.99
2018-08-27T05:56:35.934Z,99.99
2018-08-27T05:57:36.491Z,99.99
2018-08-27T05:58:37.046Z,99.99
2018-08-27T05:59:37.612Z,99.99
2018-08-27T06:00:38.171Z,99.99
2018-08-27T06:01:38.753Z,99.99
2018-08-27T06:02:39.282Z,99.99
2018-08-27T06:03:39.846Z,99.99
2018-08-27T06:04:40.405Z,99.99
2018-08-27T06:05:40.960Z,99.99
2018-08-27T06:06:41.531Z,99.99
2018-08-27T06:07:42.090Z,99.99
2018-08-27T06:08:42.643Z,99.99
2018-08-27T06:09:43.216Z,99.99
2018-08-27T06:10:43.754Z,99.99
2018-08-27T06:11:44.315Z,99.99
2018-08-27T06:12:44.864Z,99.99
2018-08-27T06:13:45.420Z,99.99
2018-08-27T06:14:45.979Z,99.99
2018-08-27T06:15:46.535Z,99.99
2018-08-27T06:16:47.099Z,99.99
2018-08-27T06:17:47.657Z,99.99
2018-08-27T06:18:48.215Z,99.99
2018-08-27T06:19:48.777Z,99.99
2018-08-27T06:20:49.337Z,99.99
2018-08-27T06:21:49.944Z,99.99
2018-08-27T06:22:50.449Z,99.99
2018-08-27T06:23:51.013Z,99.99
2018-08-27T06:24:51.571Z,99.99
2018-08-27T06:25:52.125Z,99.99
2018-08-27T06:26:52.686Z,99.99
2018-08-27T06:27:53.242Z,99.99
2018-08-27T06:28:53.801Z,99.99
2018-08-27T06:29:54.361Z,99.99
2018-08-27T06:30:54.920Z,99.99
2018-08-27T06:31:55.485Z,99.99
2018-08-27T06:32:56.041Z,99.99
2018-08-27T06:33:56.603Z,99.99
2018-08-27T06:34:57.155Z,99.99
2018-08-27T06:35:57.713Z,99.99
2018-08-27T06:36:58.278Z,99.99
2018-08-27T06:37:58.901Z,99.99
2018-08-27T06:38:59.394Z,99.99
2018-08-27T06:39:59.964Z,99.99
2018-08-27T06:41:00.510Z,99.99
2018-08-27T06:42:01.069Z,99.99
2018-08-27T06:43:01.627Z,99.99
2018-08-27T06:44:02.213Z,99.99
2018-08-27T06:45:02.786Z,99.99
2018-08-27T06:46:03.312Z,99.99
2018-08-27T06:47:03.875Z,99.99
2018-08-27T06:48:04.439Z,99.99
2018-08-27T06:49:04.998Z,99.99
2018-08-27T06:50:05.560Z,99.99
2018-08-27T06:51:06.124Z,99.99
2018-08-27T06:52:06.682Z,99.99
2018-08-27T06:53:07.245Z,99.99
2018-08-27T06:54:07.800Z,99.99
2018-08-27T06:55:08.359Z,99.99
2018-08-27T06:56:08.921Z,99.99
2018-08-27T06:57:09.482Z,99.99
2018-08-27T06:58:10.047Z,99.99
2018-08-27T06:59:10.600Z,99.99
2018-08-27T07:00:11.161Z,99.99
2018-08-27T07:01:11.723Z,99.99
2018-08-27T07:02:12.297Z,99.99
2018-08-27T07:03:12.854Z,99.99
2018-08-27T07:04:13.409Z,99.99
2018-08-27T07:05:13.973Z,99.99
2018-08-27T07:06:14.528Z,99.99
2018-08-27T07:07:15.090Z,99.99
2018-08-27T07:08:15.645Z,99.99
2018-08-27T07:09:16.212Z,99.99
2018-08-27T07:10:16.768Z,99.99
2018-08-27T07:11:17.333Z,99.99
2018-08-27T07:12:17.894Z,99.99
2018-08-27T07:13:18.459Z,99.99
2018-08-27T07:14:19.018Z,99.99
2018-08-27T07:15:19.577Z,99.99
2018-08-27T07:16:20.140Z,99.99
2018-08-27T07:17:20.700Z,99.99
2018-08-27T07:18:21.256Z,99.99
2018-08-27T07:19:21.820Z,99.99
2018-08-27T07:20:22.397Z,99.99
2018-08-27T07:21:22.942Z,99.99
2018-08-27T07:22:23.498Z,99.99
2018-08-27T07:23:24.062Z,99.99
2018-08-27T07:24:24.620Z,99.99
2018-08-27T07:25:25.180Z,99.99
2018-08-27T07:26:25.743Z,99.99
2018-08-27T07:27:26.363Z,99.99
2018-08-27T07:28:26.867Z,99.99
2018-08-27T07:29:27.429Z,99.99
2018-08-27T07:30:27.987Z,99.99
2018-08-27T07:31:28.547Z,99.99
2018-08-27T07:32:29.112Z,99.99
2018-08-27T07:33:29.759Z,99.99
2018-08-27T07:34:30.318Z,99.99
2018-08-27T07:35:30.964Z,99.99
2018-08-27T07:36:31.479Z,99.99
2018-08-27T07:37:32.001Z,99.99
2018-08-27T07:38:32.560Z,99.99
2018-08-27T07:39:33.117Z,99.99
2018-08-27T07:40:33.683Z,99.99
2018-08-27T07:41:34.248Z,99.99
2018-08-27T07:42:34.813Z,99.99
2018-08-27T07:43:35.410Z,99.99
2018-08-27T07:44:35.933Z,99.99
2018-08-27T07:45:36.509Z,99.99
2018-08-27T07:46:37.081Z,99.99
2018-08-27T07:47:37.634Z,99.99
2018-08-27T07:48:38.197Z,99.99
2018-08-27T07:49:38.759Z,99.99
2018-08-27T07:50:39.386Z,99.99
2018-08-27T07:51:39.892Z,99.99
2018-08-27T07:52:40.453Z,99.99
2018-08-27T07:53:41.017Z,99.99
2018-08-27T07:54:41.572Z,99.99
2018-08-27T07:55:42.137Z,99.99
2018-08-27T07:56:42.699Z,99.99
2018-08-27T07:57:43.262Z,99.88
2018-08-27T07:58:43.821Z,99.88
2018-08-27T07:59:44.383Z,99.59
2018-08-27T08:00:44.944Z,99.01
2018-08-27T08:01:45.507Z,98.49
2018-08-27T08:02:46.070Z,98.77
2018-08-27T08:03:46.631Z,97.04
2018-08-27T08:04:47.229Z,96.27
2018-08-27T08:05:47.751Z,96.17
2018-08-27T08:06:48.316Z,97.14
2018-08-27T08:07:48.875Z,96.85
2018-08-27T08:08:49.439Z,96.56
2018-08-27T08:09:50.002Z,96.47
2018-08-27T08:10:50.567Z,96.22
2018-08-27T08:11:51.123Z,95.40
2018-08-27T08:12:51.681Z,96.17
2018-08-27T08:13:52.246Z,96.17
2018-08-27T08:14:52.812Z,96.17
2018-08-27T08:15:53.375Z,96.27
2018-08-27T08:16:53.942Z,95.60
2018-08-27T08:17:54.503Z,95.65
2018-08-27T08:18:55.070Z,95.07
2018-08-27T08:19:55.638Z,94.49
2018-08-27T08:20:56.202Z,94.92
2018-08-27T08:21:56.765Z,95.94
2018-08-27T08:22:57.411Z,94.87
2018-08-27T08:23:57.879Z,94.97
2018-08-27T08:24:58.444Z,94.34
2018-08-27T08:25:59.004Z,94.20
2018-08-27T08:26:59.564Z,93.72
2018-08-27T08:28:00.128Z,93.24
2018-08-27T08:29:00.694Z,93.57
2018-08-27T08:30:01.281Z,93.19
2018-08-27T08:31:01.849Z,92.80
2018-08-27T08:32:02.436Z,92.52
2018-08-27T08:33:03.019Z,91.46
2018-08-27T08:34:03.543Z,91.79
2018-08-27T08:35:04.101Z,91.31
2018-08-27T08:36:04.668Z,90.78
2018-08-27T08:37:05.238Z,89.57
2018-08-27T08:38:05.816Z,88.02
2018-08-27T08:39:06.394Z,88.36
2018-08-27T08:40:06.975Z,87.59
2018-08-27T08:41:07.519Z,87.45
2018-08-27T08:42:08.084Z,87.74
2018-08-27T08:43:08.650Z,88.02
2018-08-27T08:44:09.226Z,88.08
2018-08-27T08:45:09.791Z,88.27
2018-08-27T08:46:10.356Z,88.85
2018-08-27T08:47:10.923Z,88.89
2018-08-27T08:48:11.488Z,87.79
2018-08-27T08:49:12.055Z,88.17
2018-08-27T08:50:12.621Z,87.83
2018-08-27T08:51:13.189Z,88.31
2018-08-27T08:52:13.759Z,88.37
2018-08-27T08:53:14.325Z,87.64
2018-08-27T08:54:14.899Z,87.30
2018-08-27T08:55:15.464Z,85.50
2018-08-27T08:56:16.027Z,85.75
2018-08-27T08:57:16.597Z,85.37
2018-08-27T08:58:17.164Z,86.43
2018-08-27T08:59:17.730Z,86.43
2018-08-27T09:00:18.299Z,86.33
2018-08-27T09:01:18.886Z,86.04
2018-08-27T09:02:19.434Z,86.72
2018-08-27T09:03:19.999Z,85.99
2018-08-27T09:04:20.569Z,85.99
2018-08-27T09:05:21.142Z,86.38
2018-08-27T09:06:21.792Z,85.02
2018-08-27T09:07:22.274Z,84.83
2018-08-27T09:08:23.010Z,85.41
2018-08-27T09:09:23.546Z,85.08
2018-08-27T09:10:24.131Z,85.66
2018-08-27T09:11:24.672Z,85.46
2018-08-27T09:12:25.290Z,85.75
2018-08-27T09:13:25.871Z,85.08
2018-08-27T09:14:26.424Z,84.59
2018-08-27T09:15:26.992Z,84.44
2018-08-27T09:16:27.558Z,84.54
2018-08-27T09:17:28.150Z,84.01
2018-08-27T09:18:28.681Z,84.98
2018-08-27T09:19:29.249Z,85.46
2018-08-27T09:20:29.814Z,84.84
2018-08-27T09:21:30.384Z,85.52
2018-08-27T09:22:30.948Z,85.33
2018-08-27T09:23:31.523Z,84.98
2018-08-27T09:24:32.495Z,85.23
2018-08-27T09:25:33.270Z,85.03
2018-08-27T09:26:33.842Z,85.42
2018-08-27T09:27:34.409Z,85.67
2018-08-27T09:28:34.976Z,86.10
2018-08-27T09:29:35.544Z,86.44
2018-08-27T09:30:36.112Z,86.63
2018-08-27T09:31:36.672Z,86.54
2018-08-27T09:32:37.229Z,87.40
2018-08-27T09:33:37.795Z,87.12
2018-08-27T09:34:38.357Z,86.54
2018-08-27T09:35:38.919Z,86.54
2018-08-27T09:36:39.491Z,86.54
2018-08-27T09:37:40.106Z,86.54
2018-08-27T09:38:40.626Z,86.82
2018-08-27T09:39:41.203Z,86.82
2018-08-27T09:40:41.759Z,87.30
2018-08-27T09:41:42.455Z,86.82
2018-08-27T09:42:42.936Z,86.35
2018-08-27T09:43:43.495Z,86.44
2018-08-27T09:44:44.063Z,86.44
2018-08-27T09:45:44.635Z,86.48
2018-08-27T09:46:45.232Z,85.46
2018-08-27T09:47:45.768Z,83.96
2018-08-27T09:48:46.339Z,82.65
2018-08-27T09:49:46.918Z,81.92
2018-08-27T09:50:47.497Z,80.57
2018-08-27T09:51:48.049Z,80.82
2018-08-27T09:52:48.727Z,80.05
2018-08-27T09:53:49.179Z,80.78
2018-08-27T09:54:49.747Z,81.20
2018-08-27T09:55:50.315Z,80.49
2018-08-27T09:56:50.889Z,81.93
2018-08-27T09:57:51.455Z,81.59
2018-08-27T09:58:52.091Z,80.76
2018-08-27T09:59:52.586Z,78.64
2018-08-27T10:00:53.157Z,78.15
2018-08-27T10:01:53.725Z,77.71
2018-08-27T10:02:54.498Z,77.07
2018-08-27T10:03:55.071Z,76.29
2018-08-27T10:04:55.643Z,76.45
2018-08-27T10:05:56.212Z,76.78
2018-08-27T10:06:56.799Z,76.33
2018-08-27T10:07:57.355Z,75.95
2018-08-27T10:08:57.989Z,75.56
2018-08-27T10:09:58.496Z,74.59
2018-08-27T10:10:59.066Z,73.33
2018-08-27T10:11:59.633Z,74.34
2018-08-27T10:13:00.209Z,73.08
2018-08-27T10:14:00.778Z,72.21
2018-08-27T10:15:01.434Z,72.66
2018-08-27T10:16:01.916Z,73.18
2018-08-27T10:17:02.486Z,72.27
2018-08-27T10:18:03.050Z,73.18
2018-08-27T10:19:03.620Z,72.56
2018-08-27T10:20:04.241Z,73.04
2018-08-27T10:21:04.816Z,73.14
2018-08-27T10:22:05.409Z,73.63
2018-08-27T10:23:05.960Z,73.04
2018-08-27T10:24:06.524Z,73.53
2018-08-27T10:25:07.090Z,73.10
2018-08-27T10:26:07.653Z,73.97
2018-08-27T10:27:08.224Z,73.63
2018-08-27T10:28:08.796Z,73.72
2018-08-27T10:29:09.361Z,73.53
2018-08-27T10:30:10.047Z,74.46
2018-08-27T10:31:10.622Z,73.53
2018-08-27T10:32:11.193Z,72.91
2018-08-27T10:33:11.770Z,73.01
2018-08-27T10:34:12.343Z,73.04
2018-08-27T10:35:12.918Z,71.88
2018-08-27T10:36:13.474Z,71.98
2018-08-27T10:37:14.057Z,71.98
2018-08-27T10:38:14.618Z,72.36
2018-08-27T10:39:15.182Z,72.85
2018-08-27T10:40:15.750Z,73.33
2018-08-27T10:41:16.320Z,72.04
2018-08-27T10:42:16.895Z,72.52
2018-08-27T10:43:17.469Z,73.01
2018-08-27T10:44:18.040Z,73.30
2018-08-27T10:45:18.613Z,73.30
2018-08-27T10:46:19.180Z,73.10
2018-08-27T10:47:19.746Z,72.64
2018-08-27T10:48:20.308Z,73.13
2018-08-27T10:49:20.877Z,74.35
2018-08-27T10:50:21.534Z,74.44
2018-08-27T10:51:22.013Z,73.77
2018-08-27T10:52:22.582Z,72.84
2018-08-27T10:53:23.148Z,71.91
2018-08-27T10:54:23.723Z,71.26
2018-08-27T10:55:24.295Z,70.82
2018-08-27T10:56:24.851Z,69.21
2018-08-27T10:57:25.414Z,67.88
2018-08-27T10:58:26.052Z,67.21
2018-08-27T10:59:26.540Z,66.88
2018-08-27T11:00:27.116Z,67.63
2018-08-27T11:01:27.697Z,68.46
2018-08-27T11:02:28.267Z,68.08
2018-08-27T11:03:28.852Z,68.01
2018-08-27T11:04:29.420Z,68.08
2018-08-27T11:05:29.979Z,67.63
2018-08-27T11:06:30.547Z,67.53
2018-08-27T11:07:31.122Z,67.49
2018-08-27T11:08:31.700Z,67.98
2018-08-27T11:09:32.263Z,66.91
2018-08-27T11:10:32.895Z,66.91
2018-08-27T11:11:33.392Z,65.95
2018-08-27T11:12:34.267Z,65.75
2018-08-27T11:13:34.783Z,65.17
2018-08-27T11:14:35.345Z,64.59
2018-08-27T11:15:35.909Z,64.56
2018-08-27T11:16:36.479Z,65.47
2018-08-27T11:17:37.045Z,65.53
2018-08-27T11:18:37.602Z,65.43
2018-08-27T11:19:38.273Z,66.01
2018-08-27T11:20:38.921Z,66.01
2018-08-27T11:21:39.302Z,65.75
2018-08-27T11:22:39.872Z,65.50
2018-08-27T11:23:40.475Z,64.66
2018-08-27T11:24:41.029Z,63.92
2018-08-27T11:25:41.601Z,63.14
2018-08-27T11:26:42.470Z,63.34
2018-08-27T11:27:42.732Z,63.04
2018-08-27T11:28:43.323Z,63.04
2018-08-27T11:29:43.872Z,62.27
2018-08-27T11:30:44.442Z,62.59
2018-08-27T11:31:45.013Z,62.62
2018-08-27T11:32:45.582Z,61.43
2018-08-27T11:33:46.148Z,62.30
2018-08-27T11:34:46.710Z,61.91
2018-08-27T11:35:47.604Z,62.37
2018-08-27T11:36:48.071Z,63.69
2018-08-27T11:37:48.638Z,63.89
2018-08-27T11:38:49.202Z,63.46
2018-08-27T11:39:49.766Z,63.85
2018-08-27T11:40:50.422Z,63.56
2018-08-27T11:41:50.986Z,63.85
2018-08-27T11:42:51.554Z,63.63
2018-08-27T11:43:52.125Z,63.21
2018-08-27T11:44:52.696Z,63.43
2018-08-27T11:45:53.253Z,62.59
2018-08-27T11:46:53.819Z,62.40
2018-08-27T11:47:54.389Z,60.69
2018-08-27T11:48:54.958Z,59.36
2018-08-27T11:49:55.577Z,58.01
2018-08-27T11:50:56.324Z,58.11
2018-08-27T11:51:56.752Z,58.30
2018-08-27T11:52:57.350Z,58.14
2018-08-27T11:53:57.951Z,57.75
2018-08-27T11:54:58.565Z,57.48
2018-08-27T11:55:59.080Z,57.00
2018-08-27T11:56:59.647Z,56.45
2018-08-27T11:58:00.246Z,56.15
2018-08-27T11:59:00.813Z,55.79
2018-08-27T12:00:01.383Z,54.82
2018-08-27T12:01:02.007Z,54.63
2018-08-27T12:02:02.588Z,54.66
2018-08-27T12:03:03.087Z,53.81
2018-08-27T12:04:03.659Z,53.97
2018-08-27T12:05:04.230Z,53.88
2018-08-27T12:06:04.803Z,54.20
2018-08-27T12:07:05.371Z,53.32
2018-08-27T12:08:05.936Z,53.03
2018-08-27T12:09:06.508Z,53.06
2018-08-27T12:10:07.084Z,52.31
2018-08-27T12:11:07.651Z,52.19
2018-08-27T12:12:08.222Z,51.70
2018-08-27T12:13:08.798Z,51.11
2018-08-27T12:14:09.362Z,50.43
2018-08-27T12:15:09.935Z,51.11
2018-08-27T12:16:10.500Z,51.31
2018-08-27T12:17:11.072Z,51.50
2018-08-27T12:18:11.642Z,51.70
2018-08-27T12:19:12.219Z,52.47
2018-08-27T12:20:12.795Z,52.21
2018-08-27T12:21:13.366Z,51.75
2018-08-27T12:22:13.941Z,51.99
2018-08-27T12:23:14.512Z,52.50
2018-08-27T12:24:15.089Z,51.75
2018-08-27T12:25:15.657Z,51.39
2018-08-27T12:26:16.231Z,50.70
2018-08-27T12:27:16.805Z,51.14
2018-08-27T12:28:17.380Z,51.97
2018-08-27T12:29:17.969Z,53.03
2018-08-27T12:30:18.522Z,53.16
2018-08-27T12:31:19.089Z,52.09
2018-08-27T12:32:19.680Z,52.45
2018-08-27T12:33:20.247Z,53.00
2018-08-27T12:34:20.821Z,54.05
2018-08-27T12:35:21.401Z,54.90
2018-08-27T12:36:21.972Z,55.26
2018-08-27T12:37:22.553Z,56.20
2018-08-27T12:38:23.125Z,56.68
2018-08-27T12:39:23.694Z,58.04
2018-08-27T12:40:24.306Z,58.62
2018-08-27T12:41:24.850Z,59.66
2018-08-27T12:42:25.418Z,60.59
2018-08-27T12:43:26.034Z,60.98
2018-08-27T12:44:26.553Z,61.36
2018-08-27T12:45:27.119Z,61.66
2018-08-27T12:46:27.694Z,61.56
2018-08-27T12:47:28.262Z,61.24
2018-08-27T12:48:28.823Z,62.69
2018-08-27T12:49:29.395Z,63.14
2018-08-27T12:50:29.962Z,63.79
2018-08-27T12:51:30.539Z,63.79
2018-08-27T12:52:31.105Z,64.56
2018-08-27T12:53:31.674Z,64.66
2018-08-27T12:54:32.251Z,65.11
2018-08-27T12:55:32.812Z,65.59
2018-08-27T12:56:33.383Z,65.59
2018-08-27T12:57:33.950Z,65.62
2018-08-27T12:58:34.592Z,64.95
2018-08-27T12:59:35.069Z,64.56
2018-08-27T13:00:35.630Z,64.47